KSWO/SWO METAR and TAF weather

Enter ICAO airport designator
Station Type Date Time Source
KSWO METAR 2019/12/07 16:53 UTC NOAA

KSWO 071653Z 15005KT 10SM CLR 07/M01 A3033 RMK AO2 SLP273 T00721006 $


Station Type Date Time Source
KSWO Decoded METAR 2019/12/07 16:53 UTC NOAA

STILLWATER REGIONAL AIRPORT, OK, United States (KSWO) 36-10N 97-05W 290M
Dec 07, 2019 - 11:53 AM EST / 2019.12.07 1653 UTC
Wind: from the SSE (150 degrees) at 6 MPH (5 KT):0
Visibility: 10 mile(s):0
Sky conditions: clear
Temperature: 45.0 F (7.2 C)
Dew Point: 30.9 F (-0.6 C)
Relative Humidity: 57%
Pressure (altimeter): 30.33 in. Hg (1027 hPa)
ob: KSWO 071653Z 15005KT 10SM CLR 07/M01 A3033 RMK AO2 SLP273 T00721006
cycle: 17

Station Type Date Time Source
KSWO TAF UTC NOAA

Error!

Example: see airport list